Uster, Switzerland
Current Conditions -  °F | °C
As of 6:50 PM on Thursday 23 Oct 2014 (Local Time) from LSMD Reporting Station
Broken Clouds Broken Clouds  
Wind Chill: 46°   Ceiling: 4000
Heat Index: 46°   Visibility: 6mi
Dew Point: 41°   Wind: 2mph
Humidity: 81%   Direction: 130°SE
Pressure: 30.24"   Gusts: NA
Location:  47.36°N, 8.71°E
Report Text: LSMD 231650Z AUTO 13002KT 9999NDV BKN040 BKN045 08/05 Q1024 RMK WHT
Loading
Personal Weather Stations






























Interactive Weather Map
Tropical Storm Tracking
New forecast layout! Learn more

10-Day Weather Forecast

Advertisements
Track Severe Weather on mobile